Time;durP1;ratioP1;P1;durP2;ratioP2;P2;SDS_P1;SDS_P2;PMS_P1;PMS_P2;Temp;Humidity;BMP_temperature;BMP_pressure;BME280_temperature;BME280_humidity;BME280_pressure;Samples;Min_cycle;Max_cycle;Signal;HPM_P1;HPM_P2
2023/03/06 00:00:28;;;;;;;2.30;0.73;;;2.50;99.90;;;;;;4892142;29;20698;-84
2023/03/06 00:02:54;;;;;;;3.25;0.60;;;2.40;99.90;;;;;;4912533;29;20025;-86
2023/03/06 00:05:21;;;;;;;2.60;0.60;;;2.50;99.90;;;;;;4895878;29;20028;-85
2023/03/06 00:07:47;;;;;;;4.32;0.50;;;2.50;99.90;;;;;;4913508;29;20131;-85
2023/03/06 00:10:19;;;;;;;3.05;0.57;;;2.40;99.90;;;;;;4889398;29;20198;-85
2023/03/06 00:12:44;;;;;;;3.10;0.60;;;2.40;99.90;;;;;;4871888;29;20045;-84
2023/03/06 00:15:11;;;;;;;3.95;0.82;;;2.40;99.90;;;;;;4892160;29;20160;-87
2023/03/06 00:17:37;;;;;;;2.97;0.63;;;2.40;99.90;;;;;;4892211;29;20080;-86
2023/03/06 00:20:04;;;;;;;2.08;0.50;;;2.40;99.90;;;;;;4893213;29;20044;-85
2023/03/06 00:22:30;;;;;;;2.33;0.50;;;2.40;99.90;;;;;;4893104;29;20036;-86
2023/03/06 00:24:56;;;;;;;1.40;0.50;;;2.40;99.90;;;;;;4876456;29;20037;-85
2023/03/06 00:27:24;;;;;;;1.45;0.40;;;2.40;99.90;;;;;;4876233;29;20029;-86
2023/03/06 00:29:57;;;;;;;0.90;0.30;;;2.40;99.90;;;;;;4874536;29;20048;-87
2023/03/06 00:32:24;;;;;;;3.58;0.50;;;2.30;99.90;;;;;;4873619;29;20029;-85
2023/03/06 00:34:51;;;;;;;2.28;0.40;;;2.30;99.90;;;;;;4877470;29;20482;-85
2023/03/06 00:37:17;;;;;;;1.52;0.40;;;2.20;99.90;;;;;;4879825;29;20029;-87
2023/03/06 00:39:43;;;;;;;1.83;0.50;;;2.20;99.90;;;;;;4874049;29;20037;-87
2023/03/06 00:42:09;;;;;;;1.63;0.60;;;2.10;99.90;;;;;;4877545;29;20053;-87
2023/03/06 00:44:35;;;;;;;1.45;0.45;;;2.10;99.90;;;;;;4880467;29;20041;-85
2023/03/06 00:47:01;;;;;;;2.10;0.50;;;2.10;99.90;;;;;;4877079;29;20028;-86
2023/03/06 00:49:26;;;;;;;1.58;0.50;;;2.10;99.90;;;;;;4878115;29;20041;-85
2023/03/06 00:51:52;;;;;;;1.45;0.50;;;2.00;99.90;;;;;;4897013;29;20066;-87
2023/03/06 00:54:18;;;;;;;1.90;0.60;;;2.00;99.90;;;;;;4876813;29;20040;-85
2023/03/06 00:56:43;;;;;;;2.00;0.50;;;1.90;99.90;;;;;;4877542;29;20032;-87
2023/03/06 00:59:10;;;;;;;3.67;0.70;;;1.90;99.90;;;;;;4878430;29;20040;-84
2023/03/06 01:01:36;;;;;;;1.63;0.60;;;1.90;99.90;;;;;;4881248;29;20176;-89
2023/03/06 01:04:02;;;;;;;2.38;0.60;;;1.80;99.90;;;;;;4876359;29;20115;-84
2023/03/06 01:06:28;;;;;;;1.38;0.50;;;1.80;99.90;;;;;;4881388;29;20031;-87
2023/03/06 01:08:54;;;;;;;2.25;0.50;;;1.70;99.90;;;;;;4879874;29;20036;-88
2023/03/06 01:11:20;;;;;;;3.35;0.90;;;1.60;99.90;;;;;;4880844;29;20040;-86
2023/03/06 01:13:45;;;;;;;2.05;0.60;;;1.70;99.90;;;;;;4909645;29;20127;-86
2023/03/06 01:16:14;;;;;;;1.27;0.50;;;1.60;99.90;;;;;;4914462;29;20024;-88
2023/03/06 01:18:41;;;;;;;1.80;0.50;;;1.60;99.90;;;;;;4895480;29;20040;-88
2023/03/06 01:21:07;;;;;;;2.20;0.50;;;1.60;99.90;;;;;;4896406;29;20032;-86
2023/03/06 01:23:33;;;;;;;2.00;0.60;;;1.50;99.90;;;;;;4897042;29;20070;-86
2023/03/06 01:26:00;;;;;;;1.30;0.50;;;1.60;99.90;;;;;;4895461;29;20103;-87
2023/03/06 01:28:26;;;;;;;2.03;0.60;;;1.50;99.90;;;;;;4898356;29;20123;-87
2023/03/06 01:30:51;;;;;;;1.77;0.50;;;1.50;99.90;;;;;;4898728;29;20138;-85
2023/03/06 01:33:17;;;;;;;1.20;0.40;;;1.50;99.90;;;;;;4899221;29;20329;-85
2023/03/06 01:35:43;;;;;;;1.45;0.40;;;1.50;99.90;;;;;;4898844;29;20115;-87
2023/03/06 01:38:09;;;;;;;1.10;0.40;;;1.50;99.90;;;;;;4913783;29;20024;-86
2023/03/06 01:40:36;;;;;;;3.05;0.35;;;1.60;99.90;;;;;;4898345;29;20035;-88
2023/03/06 01:43:29;;;;;;;2.90;0.43;;;1.50;99.90;;;;;;4893725;29;20032;-86
2023/03/06 01:46:18;;;;;;;1.35;0.43;;;1.60;99.90;;;;;;4882076;29;20044;-87
2023/03/06 01:48:46;;;;;;;1.55;0.47;;;1.50;99.90;;;;;;4890875;29;20438;-87
2023/03/06 01:51:13;;;;;;;1.30;0.50;;;1.50;99.90;;;;;;4899185;29;20545;-85
2023/03/06 01:53:40;;;;;;;1.58;0.45;;;1.50;99.90;;;;;;4915224;29;20031;-85
2023/03/06 01:56:06;;;;;;;1.30;0.45;;;1.50;99.90;;;;;;4897452;29;20036;-87
2023/03/06 01:58:32;;;;;;;1.15;0.43;;;1.50;99.90;;;;;;4895365;29;20055;-85
2023/03/06 02:00:58;;;;;;;1.30;0.50;;;1.40;99.90;;;;;;4888641;29;20028;-88
2023/03/06 02:03:26;;;;;;;1.23;0.50;;;1.40;99.90;;;;;;4914461;29;20035;-88
2023/03/06 02:05:52;;;;;;;1.92;0.80;;;1.40;99.90;;;;;;4898917;29;20040;-87
2023/03/06 02:08:22;;;;;;;5.97;3.38;;;1.50;99.90;;;;;;4897996;29;20028;-84
2023/03/06 02:11:01;;;;;;;5.80;2.83;;;1.50;99.90;;;;;;4913537;29;20095;-86
2023/03/06 02:13:27;;;;;;;7.63;4.35;;;1.60;99.90;;;;;;4913470;29;20028;-84
2023/03/06 02:15:53;;;;;;;10.93;6.60;;;1.60;99.90;;;;;;4897679;29;20032;-86
2023/03/06 02:18:19;;;;;;;10.45;6.60;;;1.60;99.90;;;;;;4900081;29;20036;-84
2023/03/06 02:20:54;;;;;;;14.00;8.02;;;1.60;99.90;;;;;;4892315;29;20044;-87
2023/03/06 02:23:34;;;;;;;11.10;7.53;;;1.70;99.90;;;;;;4895998;29;20028;-84
2023/03/06 02:26:01;;;;;;;15.25;8.60;;;1.60;99.90;;;;;;4894696;29;20028;-85
2023/03/06 02:28:27;;;;;;;14.20;9.52;;;1.60;99.90;;;;;;4894839;29;20055;-84
2023/03/06 02:30:54;;;;;;;14.65;9.90;;;1.60;99.90;;;;;;4898291;29;20504;-84
2023/03/06 02:33:24;;;;;;;14.10;10.13;;;1.60;99.90;;;;;;4912769;29;20028;-85
2023/03/06 02:35:56;;;;;;;14.60;10.57;;;1.60;99.90;;;;;;4886663;29;20429;-84
2023/03/06 02:38:27;;;;;;;12.48;8.90;;;1.70;99.90;;;;;;4907675;29;20040;-86
2023/03/06 02:40:53;;;;;;;13.43;10.45;;;1.60;99.90;;;;;;4894499;29;20087;-85
2023/03/06 02:43:27;;;;;;;13.00;8.75;;;1.60;99.90;;;;;;4890451;29;20034;-85
2023/03/06 02:45:53;;;;;;;15.85;10.63;;;1.60;99.90;;;;;;4892142;29;20041;-86
2023/03/06 02:48:19;;;;;;;21.10;12.38;;;1.60;99.90;;;;;;4894359;29;20040;-88
2023/03/06 02:50:46;;;;;;;19.20;13.38;;;1.70;99.90;;;;;;4893561;29;20040;-84
2023/03/06 02:53:13;;;;;;;19.48;13.00;;;1.70;99.90;;;;;;4894809;29;20035;-85
2023/03/06 02:55:39;;;;;;;23.38;15.40;;;1.70;99.90;;;;;;4879418;29;20036;-88
2023/03/06 02:58:05;;;;;;;21.95;14.93;;;1.80;99.90;;;;;;4896239;29;20056;-85
2023/03/06 03:00:32;;;;;;;23.02;16.20;;;1.70;99.90;;;;;;4894861;29;20028;-85
2023/03/06 03:03:00;;;;;;;23.02;13.82;;;1.80;99.90;;;;;;4893065;29;20111;-86
2023/03/06 03:05:26;;;;;;;18.50;11.68;;;1.70;99.90;;;;;;4913463;29;20039;-86
2023/03/06 03:07:58;;;;;;;18.35;11.65;;;1.60;99.90;;;;;;4897591;29;20025;-84
2023/03/06 03:10:24;;;;;;;21.73;13.57;;;1.60;99.90;;;;;;4896645;29;20032;-86
2023/03/06 03:12:50;;;;;;;23.30;13.30;;;1.60;99.90;;;;;;4897578;29;20055;-87
2023/03/06 03:15:17;;;;;;;19.17;12.02;;;1.50;99.90;;;;;;4896677;29;20028;-86
2023/03/06 03:17:43;;;;;;;17.13;11.10;;;1.50;99.90;;;;;;4895903;29;20025;-87
2023/03/06 03:20:12;;;;;;;13.15;8.95;;;1.50;99.90;;;;;;4897581;29;20131;-85
2023/03/06 03:22:38;;;;;;;15.25;9.20;;;1.40;99.90;;;;;;4894777;29;20108;-87
2023/03/06 03:25:04;;;;;;;15.80;9.65;;;1.50;99.90;;;;;;4896981;29;20088;-86
2023/03/06 03:27:30;;;;;;;12.95;8.25;;;1.40;99.90;;;;;;4892397;29;20020;-84
2023/03/06 03:29:57;;;;;;;11.93;7.53;;;1.40;99.90;;;;;;4892354;29;20032;-86
2023/03/06 03:32:23;;;;;;;12.15;8.10;;;1.40;99.90;;;;;;4895606;29;20028;-86
2023/03/06 03:34:49;;;;;;;10.95;7.03;;;1.40;99.90;;;;;;4912360;29;20036;-84
2023/03/06 03:37:17;;;;;;;11.43;7.65;;;1.40;99.90;;;;;;4894252;29;20473;-87
2023/03/06 03:39:42;;;;;;;11.23;6.90;;;1.50;99.90;;;;;;4895046;29;20032;-86
2023/03/06 03:42:09;;;;;;;13.30;8.90;;;1.50;99.90;;;;;;4891546;29;20409;-86
2023/03/06 03:44:35;;;;;;;15.18;9.45;;;1.50;99.90;;;;;;4894391;29;20481;-86
2023/03/06 03:47:01;;;;;;;15.05;8.75;;;1.60;99.90;;;;;;4891310;29;20084;-87
2023/03/06 03:49:26;;;;;;;14.52;7.30;;;1.60;99.90;;;;;;4890530;29;20028;-86
2023/03/06 03:51:53;;;;;;;11.63;6.95;;;1.50;99.90;;;;;;4912046;29;20038;-86
2023/03/06 03:54:19;;;;;;;12.70;7.40;;;1.50;99.90;;;;;;4896958;29;20029;-85
2023/03/06 03:56:47;;;;;;;9.07;5.70;;;1.50;99.90;;;;;;4896371;29;20060;-85
2023/03/06 03:59:19;;;;;;;13.65;8.70;;;1.50;99.90;;;;;;4889666;29;20040;-84
2023/03/06 04:01:57;;;;;;;14.27;9.30;;;1.60;99.90;;;;;;4892231;29;20032;-84
2023/03/06 04:04:23;;;;;;;14.10;9.25;;;1.60;99.90;;;;;;4889665;29;20029;-84
2023/03/06 04:06:49;;;;;;;14.93;9.15;;;1.60;99.90;;;;;;4896550;29;20027;-85
2023/03/06 04:09:16;;;;;;;12.05;8.45;;;1.50;99.90;;;;;;4895031;29;20035;-86
2023/03/06 04:11:42;;;;;;;11.77;8.13;;;1.50;99.90;;;;;;4893988;29;20045;-87
2023/03/06 04:14:08;;;;;;;11.38;7.25;;;1.60;99.90;;;;;;4894073;29;20032;-84
2023/03/06 04:16:34;;;;;;;13.38;8.73;;;1.50;99.90;;;;;;4893481;29;20548;-84
2023/03/06 04:19:00;;;;;;;14.48;8.85;;;1.60;99.90;;;;;;4896211;29;20052;-84
2023/03/06 04:21:26;;;;;;;13.45;9.02;;;1.60;99.90;;;;;;4894436;29;20035;-83
2023/03/06 04:23:52;;;;;;;15.90;10.45;;;1.70;99.90;;;;;;4896717;29;20024;-85
2023/03/06 04:26:18;;;;;;;14.48;9.85;;;1.70;99.90;;;;;;4892660;29;20116;-85
2023/03/06 04:28:44;;;;;;;10.85;6.78;;;1.70;99.90;;;;;;4895094;29;20127;-85
2023/03/06 04:31:11;;;;;;;11.65;7.03;;;1.70;99.90;;;;;;4896481;29;20483;-85
2023/03/06 04:33:37;;;;;;;12.32;7.43;;;1.70;99.90;;;;;;4895917;29;20036;-84
2023/03/06 04:36:04;;;;;;;12.43;8.30;;;1.70;99.90;;;;;;4892902;29;20349;-84
2023/03/06 04:38:32;;;;;;;11.80;7.53;;;1.70;99.90;;;;;;4892106;29;20032;-85
2023/03/06 04:40:57;;;;;;;11.93;6.95;;;1.80;99.90;;;;;;4888994;29;20384;-85
2023/03/06 04:43:23;;;;;;;11.55;7.75;;;1.70;99.90;;;;;;4891598;29;20100;-86
2023/03/06 04:45:49;;;;;;;12.50;7.78;;;1.80;99.90;;;;;;4888220;29;20036;-84
2023/03/06 04:48:17;;;;;;;15.43;8.95;;;1.80;99.90;;;;;;4893243;29;20115;-86
2023/03/06 04:50:43;;;;;;;14.93;9.07;;;1.80;99.90;;;;;;4893462;29;20028;-84
2023/03/06 04:53:09;;;;;;;14.95;9.40;;;1.80;99.90;;;;;;4890731;29;20096;-85
2023/03/06 04:55:35;;;;;;;15.65;8.27;;;1.80;99.90;;;;;;4895548;29;20540;-86
2023/03/06 04:58:01;;;;;;;18.02;10.73;;;1.80;99.90;;;;;;4911354;29;20179;-86
2023/03/06 05:00:30;;;;;;;16.05;9.10;;;1.80;99.90;;;;;;4887743;29;20485;-85
2023/03/06 05:02:59;;;;;;;17.70;11.57;;;1.80;99.90;;;;;;4892577;29;20040;-85
2023/03/06 05:05:26;;;;;;;15.77;9.18;;;1.80;99.90;;;;;;4891076;29;20062;-86
2023/03/06 05:07:53;;;;;;;17.60;9.93;;;1.90;99.90;;;;;;4896572;29;20043;-86
2023/03/06 05:10:19;;;;;;;16.33;8.60;;;1.90;99.90;;;;;;4895989;29;20468;-84
2023/03/06 05:12:45;;;;;;;11.95;7.38;;;1.80;99.90;;;;;;4893056;29;20047;-85
2023/03/06 05:15:12;;;;;;;17.33;9.98;;;1.90;99.90;;;;;;4910859;29;20029;-84
2023/03/06 05:17:38;;;;;;;19.23;10.25;;;1.90;99.90;;;;;;4911297;29;20036;-86
2023/03/06 05:20:06;;;;;;;16.30;9.35;;;1.90;99.90;;;;;;4895527;29;20047;-85
2023/03/06 05:22:33;;;;;;;18.30;10.95;;;1.90;99.90;;;;;;4896229;29;20068;-86
2023/03/06 05:24:59;;;;;;;19.65;11.40;;;1.90;99.90;;;;;;4891400;29;20044;-82
2023/03/06 05:27:25;;;;;;;20.65;11.43;;;1.90;99.90;;;;;;4894662;29;20039;-84
2023/03/06 05:29:50;;;;;;;19.30;11.25;;;1.90;99.90;;;;;;4915008;29;20032;-86
2023/03/06 05:32:16;;;;;;;20.08;10.35;;;1.90;99.90;;;;;;4913833;29;20028;-85
2023/03/06 05:34:42;;;;;;;16.45;9.77;;;1.90;99.90;;;;;;4910421;29;20485;-85
2023/03/06 05:37:08;;;;;;;16.08;9.48;;;1.90;99.90;;;;;;4891042;29;20024;-85
2023/03/06 05:39:33;;;;;;;15.43;9.38;;;1.90;99.90;;;;;;4898473;29;20127;-84
2023/03/06 05:41:59;;;;;;;17.08;10.18;;;2.00;99.90;;;;;;4914598;29;20425;-84
2023/03/06 05:44:30;;;;;;;16.65;9.27;;;2.00;99.90;;;;;;4898987;29;20028;-85
2023/03/06 05:46:56;;;;;;;17.60;10.63;;;2.00;99.90;;;;;;4897316;29;20422;-86
2023/03/06 05:49:22;;;;;;;14.15;9.00;;;2.00;99.90;;;;;;4898282;29;20052;-86
2023/03/06 05:51:47;;;;;;;17.73;9.52;;;2.00;99.90;;;;;;4890544;29;20024;-87
2023/03/06 05:54:13;;;;;;;14.80;8.77;;;2.00;99.90;;;;;;4913230;29;20047;-85
2023/03/06 05:56:39;;;;;;;17.85;9.23;;;2.00;99.90;;;;;;4897393;29;20111;-85
2023/03/06 05:59:04;;;;;;;16.83;9.55;;;2.10;99.90;;;;;;4916642;29;20040;-85
2023/03/06 06:01:30;;;;;;;14.88;9.05;;;2.10;99.90;;;;;;4898497;29;20028;-85
2023/03/06 06:03:56;;;;;;;16.38;8.68;;;2.00;99.90;;;;;;4895212;29;20032;-85
2023/03/06 06:06:21;;;;;;;13.95;8.27;;;2.10;99.90;;;;;;4896223;29;20035;-85
2023/03/06 06:08:47;;;;;;;16.88;7.85;;;2.10;99.90;;;;;;4894756;29;20032;-86
2023/03/06 06:11:13;;;;;;;13.43;8.00;;;2.10;99.90;;;;;;4897990;29;20064;-85
2023/03/06 06:13:39;;;;;;;16.95;8.88;;;2.10;99.90;;;;;;4895067;29;20171;-85
2023/03/06 06:16:07;;;;;;;14.57;8.02;;;2.10;99.90;;;;;;4895778;29;20032;-86
2023/03/06 06:18:33;;;;;;;17.65;8.70;;;2.20;99.90;;;;;;4895813;29;20039;-86
2023/03/06 06:21:02;;;;;;;15.85;8.48;;;2.20;99.90;;;;;;4895291;29;20036;-85
2023/03/06 06:23:27;;;;;;;11.60;6.82;;;2.20;99.90;;;;;;4896824;29;20043;-85
2023/03/06 06:25:54;;;;;;;14.30;6.80;;;2.20;99.90;;;;;;4893789;29;20036;-86
2023/03/06 06:28:19;;;;;;;11.80;6.50;;;2.20;99.90;;;;;;4913779;29;20615;-86
2023/03/06 06:30:45;;;;;;;14.02;6.15;;;2.20;99.90;;;;;;4892781;29;20075;-86
2023/03/06 06:33:11;;;;;;;11.32;6.32;;;2.20;99.90;;;;;;4894046;29;20032;-86
2023/03/06 06:35:36;;;;;;;11.15;6.18;;;2.20;99.90;;;;;;4897362;29;20028;-85
2023/03/06 06:38:02;;;;;;;13.20;6.97;;;2.30;99.90;;;;;;4894188;29;20369;-85
2023/03/06 06:40:28;;;;;;;15.43;7.18;;;2.20;99.90;;;;;;4896956;29;20474;-85
2023/03/06 06:42:54;;;;;;;14.55;6.95;;;2.20;99.90;;;;;;4892751;29;20028;-86
2023/03/06 06:45:19;;;;;;;13.40;7.55;;;2.20;99.90;;;;;;4911867;29;20087;-85
2023/03/06 06:47:48;;;;;;;14.15;8.18;;;2.30;99.90;;;;;;4891474;29;20028;-85
2023/03/06 06:50:14;;;;;;;12.23;6.53;;;2.30;99.90;;;;;;4895571;29;20032;-86
2023/03/06 06:52:40;;;;;;;13.23;7.95;;;2.30;99.90;;;;;;4896569;29;20032;-86
2023/03/06 06:55:06;;;;;;;15.25;8.10;;;2.30;99.90;;;;;;4896389;29;20047;-84
2023/03/06 06:57:32;;;;;;;13.52;7.57;;;2.30;99.90;;;;;;4893411;29;20039;-86
2023/03/06 06:59:58;;;;;;;14.70;7.72;;;2.30;99.90;;;;;;4893615;29;20036;-84
2023/03/06 07:02:23;;;;;;;13.02;8.35;;;2.40;99.90;;;;;;4896888;29;20028;-86
2023/03/06 07:04:49;;;;;;;18.83;8.23;;;2.40;99.90;;;;;;4893348;29;20043;-85
2023/03/06 07:07:15;;;;;;;15.02;8.60;;;2.40;99.90;;;;;;4894423;29;20028;-85
2023/03/06 07:09:41;;;;;;;13.95;8.13;;;2.40;99.90;;;;;;4912303;29;20047;-85
2023/03/06 07:12:07;;;;;;;13.43;7.85;;;2.40;99.90;;;;;;4892948;29;20052;-86
2023/03/06 07:14:33;;;;;;;15.25;9.15;;;2.50;99.90;;;;;;4891708;29;20040;-86
2023/03/06 07:16:59;;;;;;;14.57;8.63;;;2.40;99.90;;;;;;4891794;29;20028;-85
2023/03/06 07:19:24;;;;;;;15.27;9.50;;;2.40;99.90;;;;;;4911861;29;20592;-85
2023/03/06 07:21:50;;;;;;;16.38;9.32;;;2.40;99.90;;;;;;4895867;29;20473;-86
2023/03/06 07:24:16;;;;;;;15.70;9.43;;;2.50;99.90;;;;;;4887574;29;20039;-84
2023/03/06 07:26:46;;;;;;;12.95;9.05;;;2.50;99.90;;;;;;4893791;29;20076;-85
2023/03/06 07:29:12;;;;;;;16.90;9.77;;;2.50;99.90;;;;;;4909767;29;20095;-86
2023/03/06 07:31:38;;;;;;;14.63;8.75;;;2.50;99.90;;;;;;4895208;29;20070;-85
2023/03/06 07:34:04;;;;;;;15.25;9.50;;;2.60;99.90;;;;;;4895799;29;20024;-85
2023/03/06 07:36:30;;;;;;;20.33;9.35;;;2.60;99.90;;;;;;4892238;29;20052;-86
2023/03/06 07:38:56;;;;;;;14.10;8.95;;;2.70;99.90;;;;;;4894416;29;20044;-86
2023/03/06 07:41:22;;;;;;;14.32;8.27;;;2.80;99.90;;;;;;4911199;29;20032;-86
2023/03/06 07:43:48;;;;;;;13.63;9.18;;;2.80;99.90;;;;;;4891472;29;20417;-85
2023/03/06 07:46:14;;;;;;;13.43;8.15;;;2.80;99.90;;;;;;4896021;29;20497;-85
2023/03/06 07:48:40;;;;;;;15.02;9.68;;;2.70;99.90;;;;;;4895803;29;20091;-85
2023/03/06 07:51:13;;;;;;;13.07;8.48;;;2.80;99.90;;;;;;4895758;29;20120;-85
2023/03/06 07:53:38;;;;;;;10.93;7.78;;;2.80;99.90;;;;;;4893602;29;20036;-86
2023/03/06 07:56:07;;;;;;;12.10;8.05;;;2.90;99.90;;;;;;4891690;29;20095;-86
2023/03/06 07:58:35;;;;;;;10.70;7.37;;;2.80;99.90;;;;;;4912011;29;20044;-85
2023/03/06 08:01:06;;;;;;;12.27;7.88;;;2.90;99.90;;;;;;4892728;29;20036;-86
2023/03/06 08:03:32;;;;;;;9.45;6.68;;;2.90;99.90;;;;;;4888925;29;20068;-86
2023/03/06 08:06:05;;;;;;;11.40;6.85;;;2.90;99.90;;;;;;4892665;29;20067;-86
2023/03/06 08:08:33;;;;;;;10.13;7.15;;;3.00;99.90;;;;;;4894720;29;20024;-86
2023/03/06 08:10:59;;;;;;;11.27;7.18;;;3.10;99.90;;;;;;4894863;29;20180;-85
2023/03/06 08:13:25;;;;;;;9.02;6.07;;;3.10;99.90;;;;;;4892779;29;20059;-86
2023/03/06 08:15:52;;;;;;;10.57;5.85;;;3.10;99.90;;;;;;4891549;29;20087;-86
2023/03/06 08:18:18;;;;;;;7.88;5.75;;;3.20;99.90;;;;;;4889729;29;20048;-86
2023/03/06 08:20:43;;;;;;;7.75;5.07;;;3.30;99.90;;;;;;4892675;29;20032;-87
2023/03/06 08:23:10;;;;;;;7.00;5.15;;;3.30;99.90;;;;;;4891188;29;20039;-86
2023/03/06 08:25:36;;;;;;;8.77;5.18;;;3.40;99.90;;;;;;4895552;29;20046;-86
2023/03/06 08:28:02;;;;;;;5.43;3.85;;;3.50;99.90;;;;;;4895052;29;20123;-84
2023/03/06 08:30:29;;;;;;;6.43;4.05;;;3.70;99.90;;;;;;4895331;29;20888;-86
2023/03/06 08:32:55;;;;;;;5.78;3.72;;;4.00;99.90;;;;;;4913153;29;20025;-86
2023/03/06 08:35:21;;;;;;;5.70;3.35;;;4.10;99.90;;;;;;4888668;29;20119;-87
2023/03/06 08:37:46;;;;;;;4.10;2.83;;;4.00;99.90;;;;;;4905247;29;20036;-86
2023/03/06 08:40:12;;;;;;;4.38;2.88;;;3.80;99.90;;;;;;4895078;29;20050;-87
2023/03/06 08:42:38;;;;;;;5.75;3.22;;;4.00;99.90;;;;;;4888440;29;20119;-86
2023/03/06 08:45:05;;;;;;;3.88;2.72;;;4.30;99.90;;;;;;4893777;29;20112;-87
2023/03/06 08:47:33;;;;;;;7.53;3.00;;;4.20;99.90;;;;;;4894065;29;20123;-86
2023/03/06 08:49:58;;;;;;;5.13;1.75;;;4.10;99.90;;;;;;4892506;29;20032;-86
2023/03/06 08:52:24;;;;;;;8.77;2.38;;;4.30;99.90;;;;;;4911571;29;20507;-87
2023/03/06 08:54:50;;;;;;;3.13;1.85;;;4.50;99.90;;;;;;4891886;29;20068;-85
2023/03/06 08:57:15;;;;;;;4.28;1.48;;;4.50;99.90;;;;;;4870968;29;20740;-85
2023/03/06 08:59:41;;;;;;;3.95;1.35;;;4.40;99.90;;;;;;4891218;29;20048;-86
2023/03/06 09:02:11;;;;;;;2.63;0.90;;;4.10;99.90;;;;;;4895853;29;20414;-88
2023/03/06 09:04:37;;;;;;;1.95;0.70;;;4.20;99.90;;;;;;4896690;29;20078;-86
2023/03/06 09:07:03;;;;;;;2.97;0.80;;;4.60;99.90;;;;;;4895134;29;20056;-86
2023/03/06 09:09:28;;;;;;;3.88;0.60;;;4.60;99.90;;;;;;4881626;29;20119;-87
2023/03/06 09:11:55;;;;;;;2.08;0.50;;;4.70;99.90;;;;;;4895955;29;20048;-87
2023/03/06 09:14:20;;;;;;;3.55;0.50;;;4.60;99.90;;;;;;4896011;29;20028;-86
2023/03/06 09:16:46;;;;;;;1.95;0.43;;;4.70;99.90;;;;;;4893715;29;20040;-87
2023/03/06 09:19:13;;;;;;;1.60;0.40;;;5.00;99.90;;;;;;4898079;29;20395;-86
2023/03/06 09:21:38;;;;;;;1.05;0.30;;;4.90;99.90;;;;;;4899043;29;20127;-87
2023/03/06 09:24:04;;;;;;;1.92;0.40;;;4.70;99.90;;;;;;4898039;29;20039;-87
2023/03/06 09:26:30;;;;;;;0.80;0.30;;;4.60;99.90;;;;;;4898792;29;20035;-86
2023/03/06 09:28:55;;;;;;;1.63;0.40;;;4.50;99.90;;;;;;4898436;29;20495;-87
2023/03/06 09:31:21;;;;;;;1.42;0.40;;;4.50;99.90;;;;;;4896154;29;20024;-87
2023/03/06 09:33:47;;;;;;;1.23;0.50;;;4.60;99.90;;;;;;4896719;29;20134;-86
2023/03/06 09:36:16;;;;;;;1.67;0.40;;;4.80;99.90;;;;;;4897037;29;20028;-87
2023/03/06 09:38:42;;;;;;;1.80;0.32;;;4.80;99.90;;;;;;4893883;29;20458;-87
2023/03/06 09:41:23;;;;;;;1.05;0.55;;;4.70;99.90;;;;;;4897190;29;20060;-87
2023/03/06 09:43:52;;;;;;;1.25;0.30;;;4.80;99.90;;;;;;4897963;29;20036;-87
2023/03/06 09:46:31;;;;;;;0.80;0.30;;;4.90;99.90;;;;;;4893483;29;20033;-87
2023/03/06 09:49:33;;;;;;;0.80;0.30;;;5.10;99.90;;;;;;4897242;29;20067;-87
2023/03/06 09:52:24;;;;;;;0.50;0.20;;;5.10;99.90;;;;;;4912559;29;20039;-86
2023/03/06 09:54:55;;;;;;;0.43;0.20;;;5.40;99.90;;;;;;4914204;29;20040;-87
2023/03/06 09:57:27;;;;;;;0.60;0.20;;;5.10;99.90;;;;;;4897860;29;20028;-88
2023/03/06 10:00:00;;;;;;;0.50;0.13;;;5.30;99.90;;;;;;4913218;29;20044;-88
2023/03/06 10:02:37;;;;;;;0.50;0.15;;;5.60;99.90;;;;;;4895557;29;20099;-89
2023/03/06 10:05:18;;;;;;;1.45;0.10;;;5.80;99.90;;;;;;4893137;29;20051;-88
2023/03/06 10:08:00;;;;;;;0.47;0.20;;;6.20;99.90;;;;;;4894250;29;20032;-88
2023/03/06 10:10:41;;;;;;;1.13;0.10;;;6.30;99.90;;;;;;4878355;29;20035;-88
2023/03/06 10:13:18;;;;;;;0.60;0.10;;;6.50;99.90;;;;;;4894852;29;20634;-88
2023/03/06 10:15:46;;;;;;;0.25;0.10;;;6.60;99.90;;;;;;4895242;29;20116;-89
2023/03/06 10:18:11;;;;;;;1.67;0.15;;;6.50;99.90;;;;;;4894329;29;20040;-88
2023/03/06 10:20:57;;;;;;;0.80;0.20;;;6.10;99.90;;;;;;4892342;29;20128;-89
2023/03/06 10:23:55;;;;;;;2.05;0.20;;;6.20;99.90;;;;;;4889938;29;20028;-88
2023/03/06 10:27:07;;;;;;;1.08;0.20;;;6.20;99.90;;;;;;4894817;29;20045;-88
2023/03/06 10:29:43;;;;;;;1.50;0.20;;;6.60;99.90;;;;;;4829658;29;20036;-88
2023/03/06 10:32:26;;;;;;;0.60;0.20;;;6.30;99.90;;;;;;4892169;29;20041;-88
2023/03/06 10:34:55;;;;;;;0.57;0.20;;;5.60;99.90;;;;;;4913336;29;20036;-88
2023/03/06 10:37:21;;;;;;;0.60;0.20;;;6.10;99.90;;;;;;4912586;29;20024;-88
2023/03/06 10:40:17;;;;;;;0.68;0.20;;;6.30;99.90;;;;;;4879780;29;20040;-88
2023/03/06 10:42:43;;;;;;;0.70;0.20;;;6.40;99.90;;;;;;4904340;29;20090;-87
2023/03/06 10:45:14;;;;;;;0.85;0.20;;;6.00;99.90;;;;;;4897406;29;20074;-87
2023/03/06 10:47:41;;;;;;;0.50;0.35;;;6.00;99.90;;;;;;4897568;29;20039;-88
2023/03/06 10:50:29;;;;;;;0.50;0.10;;;5.90;99.90;;;;;;4896840;29;20036;-87
2023/03/06 10:53:04;;;;;;;0.80;0.20;;;6.00;99.90;;;;;;4905193;29;20100;-88
2023/03/06 10:55:34;;;;;;;3.60;0.20;;;6.00;99.90;;;;;;4893230;29;20028;-88
2023/03/06 10:58:18;;;;;;;0.80;0.10;;;6.20;99.90;;;;;;4895010;29;20108;-86
2023/03/06 11:00:44;;;;;;;1.00;0.15;;;6.00;99.90;;;;;;4912948;29;20044;-86
2023/03/06 11:03:15;;;;;;;0.35;0.10;;;6.10;99.90;;;;;;4892684;29;20028;-87
2023/03/06 11:05:59;;;;;;;0.55;0.10;;;6.10;99.90;;;;;;4893680;29;20103;-87
2023/03/06 11:08:24;;;;;;;0.43;0.10;;;6.00;99.90;;;;;;4894280;29;20580;-88
2023/03/06 11:11:06;;;;;;;1.08;0.28;;;6.10;99.90;;;;;;4888950;29;20048;-87
2023/03/06 11:13:35;;;;;;;0.50;0.10;;;6.10;99.90;;;;;;4878576;29;20039;-87
2023/03/06 11:16:03;;;;;;;1.25;0.10;;;6.10;99.90;;;;;;4893886;29;20067;-88
2023/03/06 11:18:34;;;;;;;0.65;0.10;;;5.80;99.90;;;;;;4912053;29;20116;-87
2023/03/06 11:21:02;;;;;;;1.85;0.10;;;5.80;99.90;;;;;;4895864;29;20055;-86
2023/03/06 11:23:40;;;;;;;0.50;0.10;;;5.90;99.90;;;;;;4911302;29;20029;-88
2023/03/06 11:26:19;;;;;;;0.30;0.10;;;5.80;99.90;;;;;;4894069;29;20035;-88
2023/03/06 11:29:06;;;;;;;0.47;0.10;;;6.10;99.90;;;;;;4892934;29;20046;-88
2023/03/06 11:31:36;;;;;;;1.33;0.10;;;6.20;99.90;;;;;;4891369;29;20067;-88
2023/03/06 11:34:10;;;;;;;;;;;6.20;99.90;;;;;;4894287;29;20132;-88
2023/03/06 11:37:05;;;;;;;0.30;0.30;;;6.30;99.90;;;;;;4893349;29;19936;-88
2023/03/06 11:39:31;;;;;;;0.20;0.00;;;6.60;99.90;;;;;;4880719;29;20063;-88
2023/03/06 11:42:31;;;;;;;0.50;0.00;;;6.80;99.90;;;;;;4911907;29;20024;-87
2023/03/06 11:45:25;;;;;;;0.10;0.00;;;6.80;99.90;;;;;;4891947;29;20025;-88
2023/03/06 11:48:12;;;;;;;0.20;0.00;;;6.80;99.90;;;;;;4908010;29;20032;-88
2023/03/06 11:50:41;;;;;;;0.95;0.00;;;7.10;99.90;;;;;;4891841;29;20071;-87
2023/03/06 11:53:17;;;;;;;0.50;0.10;;;7.40;99.90;;;;;;4896614;29;20036;-87
2023/03/06 11:56:06;;;;;;;1.35;0.00;;;7.40;99.90;;;;;;4891563;29;20052;-86
2023/03/06 11:58:45;;;;;;;0.10;0.00;;;6.90;99.90;;;;;;4893369;29;20043;-89
2023/03/06 12:01:10;;;;;;;0.50;0.00;;;7.00;99.90;;;;;;4887988;29;20056;-88
2023/03/06 12:03:50;;;;;;;0.10;0.08;;;7.80;99.90;;;;;;4911960;29;20032;-87
2023/03/06 12:06:49;;;;;;;2.42;0.10;;;7.90;99.90;;;;;;4891788;29;20103;-87
2023/03/06 12:09:30;;;;;;;0.50;0.10;;;8.00;99.90;;;;;;4888518;29;20032;-87
2023/03/06 12:12:21;;;;;;;0.20;0.08;;;7.60;99.90;;;;;;4893084;29;20054;-88
2023/03/06 12:14:59;;;;;;;0.20;0.00;;;7.40;99.90;;;;;;4911329;29;20464;-87
2023/03/06 12:17:34;;;;;;;0.20;0.00;;;7.00;99.90;;;;;;4908105;29;20024;-86
2023/03/06 12:20:21;;;;;;;0.20;0.10;;;7.00;99.90;;;;;;4910008;29;20100;-87
2023/03/06 12:22:53;;;;;;;0.80;0.10;;;7.00;99.90;;;;;;4911942;29;20234;-87
2023/03/06 12:25:38;;;;;;;0.30;0.00;;;7.30;99.90;;;;;;4892187;29;20497;-85
2023/03/06 12:28:22;;;;;;;1.88;0.03;;;7.40;99.90;;;;;;4895686;29;20028;-87
2023/03/06 12:31:07;;;;;;;1.60;0.10;;;7.70;99.90;;;;;;4888198;29;20351;-88
2023/03/06 12:33:48;;;;;;;0.38;0.00;;;7.70;99.90;;;;;;4896050;29;20031;-87
2023/03/06 12:36:22;;;;;;;0.30;0.00;;;7.50;99.90;;;;;;4896254;29;20024;-88
2023/03/06 12:39:19;;;;;;;0.30;0.00;;;7.60;99.90;;;;;;4895877;29;20037;-87
2023/03/06 12:42:11;;;;;;;0.47;0.00;;;7.30;99.90;;;;;;4895295;29;20029;-87
2023/03/06 12:45:17;;;;;;;1.08;0.10;;;7.30;99.90;;;;;;4899914;29;20036;-86
2023/03/06 12:47:46;;;;;;;0.15;0.00;;;7.50;99.90;;;;;;4914717;29;20393;-88
2023/03/06 12:50:20;;;;;;;1.77;0.10;;;8.00;99.90;;;;;;4898593;29;20039;-88
2023/03/06 12:52:47;;;;;;;0.30;0.00;;;7.40;99.90;;;;;;4896690;29;20391;-86
2023/03/06 12:55:17;;;;;;;0.40;0.10;;;7.60;99.90;;;;;;4899014;29;20079;-87
2023/03/06 12:57:43;;;;;;;;;;;7.40;99.90;;;;;;4894158;29;20032;-87
2023/03/06 13:00:33;;;;;;;0.40;0.00;;;7.60;99.90;;;;;;4895747;29;19947;-88
2023/03/06 13:03:23;;;;;;;0.68;0.10;;;7.40;99.90;;;;;;4897566;29;20024;-85
2023/03/06 13:06:12;;;;;;;2.20;0.10;;;7.60;99.90;;;;;;4893318;29;20041;-88